Powderville, Montana
Current Conditions -  °F | °C
As of 1:51 PM on Tuesday 21 Oct 2014 (Local Time) from KBHK Reporting Station
Clear Clear  
Wind Chill: 27°   Ceiling: Unl
Heat Index: 27°   Visibility: 10mi
Dew Point:   Wind: 14mph
Humidity: 21%   Direction: 230°SW
Pressure: 29.64"   Gusts: NA
Location:  45.76°N, 105.11°W
Report Text: KBHK 211951Z AUTO 23012KT 10SM CLR 27/03 A2964 RMK AO2 SLP020 T02670028
Loading
Personal Weather Stations






























Interactive Weather Map
Tropical Storm Tracking
New forecast layout! Learn more

10-Day Weather Forecast

Advertisements
Track Severe Weather on mobile